sensor_id;sensor_type;location;lat;lon;timestamp;temperature;humidity
57709;SHT35;42558;52.388;13.390;2023-12-28T00:00:10;4.67;83.46
57709;SHT35;42558;52.388;13.390;2023-12-28T00:02:40;4.65;83.64
57709;SHT35;42558;52.388;13.390;2023-12-28T00:05:09;4.57;83.94
57709;SHT35;42558;52.388;13.390;2023-12-28T00:07:39;4.55;84.01
57709;SHT35;42558;52.388;13.390;2023-12-28T00:10:08;4.47;84.20
57709;SHT35;42558;52.388;13.390;2023-12-28T00:12:38;4.40;84.56
57709;SHT35;42558;52.388;13.390;2023-12-28T00:15:08;4.41;84.52
57709;SHT35;42558;52.388;13.390;2023-12-28T00:17:38;4.43;84.59
57709;SHT35;42558;52.388;13.390;2023-12-28T00:20:07;4.54;84.06
57709;SHT35;42558;52.388;13.390;2023-12-28T00:22:41;4.46;84.23
57709;SHT35;42558;52.388;13.390;2023-12-28T00:25:09;4.53;84.26
57709;SHT35;42558;52.388;13.390;2023-12-28T00:27:38;4.58;84.13
57709;SHT35;42558;52.388;13.390;2023-12-28T00:30:07;4.69;83.74
57709;SHT35;42558;52.388;13.390;2023-12-28T00:32:38;4.78;83.35
57709;SHT35;42558;52.388;13.390;2023-12-28T00:35:07;4.89;82.87
57709;SHT35;42558;52.388;13.390;2023-12-28T00:37:36;4.89;82.69
57709;SHT35;42558;52.388;13.390;2023-12-28T00:40:06;4.89;82.75
57709;SHT35;42558;52.388;13.390;2023-12-28T00:42:39;5.05;82.09
57709;SHT35;42558;52.388;13.390;2023-12-28T00:45:09;5.08;81.90
57709;SHT35;42558;52.388;13.390;2023-12-28T00:47:39;5.21;81.51
57709;SHT35;42558;52.388;13.390;2023-12-28T00:50:09;5.39;80.57
57709;SHT35;42558;52.388;13.390;2023-12-28T00:52:41;5.29;80.68
57709;SHT35;42558;52.388;13.390;2023-12-28T00:55:10;5.18;80.89
57709;SHT35;42558;52.388;13.390;2023-12-28T00:57:40;5.06;81.34
57709;SHT35;42558;52.388;13.390;2023-12-28T01:00:09;5.08;81.50
57709;SHT35;42558;52.388;13.390;2023-12-28T01:02:40;5.07;81.61
57709;SHT35;42558;52.388;13.390;2023-12-28T01:05:09;5.09;81.49
57709;SHT35;42558;52.388;13.390;2023-12-28T01:07:38;5.11;81.40
57709;SHT35;42558;52.388;13.390;2023-12-28T01:10:07;5.09;81.24
57709;SHT35;42558;52.388;13.390;2023-12-28T01:12:37;5.06;81.32
57709;SHT35;42558;52.388;13.390;2023-12-28T01:15:06;5.08;81.18
57709;SHT35;42558;52.388;13.390;2023-12-28T01:17:37;4.99;81.31
57709;SHT35;42558;52.388;13.390;2023-12-28T01:20:07;4.93;81.33
57709;SHT35;42558;52.388;13.390;2023-12-28T01:22:38;4.90;81.54
57709;SHT35;42558;52.388;13.390;2023-12-28T01:25:07;4.84;81.59
57709;SHT35;42558;52.388;13.390;2023-12-28T01:27:36;5.01;81.29
57709;SHT35;42558;52.388;13.390;2023-12-28T01:30:06;5.01;81.02
57709;SHT35;42558;52.388;13.390;2023-12-28T01:32:34;5.03;80.86
57709;SHT35;42558;52.388;13.390;2023-12-28T01:35:03;4.93;80.85
57709;SHT35;42558;52.388;13.390;2023-12-28T01:37:31;4.92;81.07
57709;SHT35;42558;52.388;13.390;2023-12-28T01:40:00;4.92;80.97
57709;SHT35;42558;52.388;13.390;2023-12-28T01:42:28;4.92;80.92
57709;SHT35;42558;52.388;13.390;2023-12-28T01:44:57;4.90;80.90
57709;SHT35;42558;52.388;13.390;2023-12-28T01:47:25;4.88;80.81
57709;SHT35;42558;52.388;13.390;2023-12-28T01:49:53;4.91;80.85
57709;SHT35;42558;52.388;13.390;2023-12-28T01:52:22;5.20;79.88
57709;SHT35;42558;52.388;13.390;2023-12-28T01:54:50;5.48;78.61
57709;SHT35;42558;52.388;13.390;2023-12-28T01:57:19;5.69;77.63
57709;SHT35;42558;52.388;13.390;2023-12-28T01:59:47;5.62;77.68
57709;SHT35;42558;52.388;13.390;2023-12-28T02:02:16;5.51;77.92
57709;SHT35;42558;52.388;13.390;2023-12-28T02:04:44;5.48;78.02
57709;SHT35;42558;52.388;13.390;2023-12-28T02:07:12;5.69;77.14
57709;SHT35;42558;52.388;13.390;2023-12-28T02:09:41;6.02;75.53
57709;SHT35;42558;52.388;13.390;2023-12-28T02:12:09;6.13;74.81
57709;SHT35;42558;52.388;13.390;2023-12-28T02:14:38;5.92;75.58
57709;SHT35;42558;52.388;13.390;2023-12-28T02:17:09;5.94;75.60
57709;SHT35;42558;52.388;13.390;2023-12-28T02:22:26;5.86;75.77
57709;SHT35;42558;52.388;13.390;2023-12-28T02:24:58;5.78;75.85
57709;SHT35;42558;52.388;13.390;2023-12-28T02:27:44;5.67;76.41
57709;SHT35;42558;52.388;13.390;2023-12-28T02:30:17;5.63;76.64
57709;SHT35;42558;52.388;13.390;2023-12-28T02:35:59;5.78;75.66
57709;SHT35;42558;52.388;13.390;2023-12-28T02:38:35;5.66;75.91
57709;SHT35;42558;52.388;13.390;2023-12-28T02:41:07;5.64;76.09
57709;SHT35;42558;52.388;13.390;2023-12-28T02:43:38;5.69;75.76
57709;SHT35;42558;52.388;13.390;2023-12-28T02:46:07;5.92;74.77
57709;SHT35;42558;52.388;13.390;2023-12-28T02:48:36;6.01;74.22
57709;SHT35;42558;52.388;13.390;2023-12-28T02:51:06;6.02;74.00
57709;SHT35;42558;52.388;13.390;2023-12-28T02:53:35;6.06;73.65
57709;SHT35;42558;52.388;13.390;2023-12-28T02:56:04;6.25;72.54
57709;SHT35;42558;52.388;13.390;2023-12-28T02:58:34;6.43;71.78
57709;SHT35;42558;52.388;13.390;2023-12-28T03:01:04;6.55;71.10
57709;SHT35;42558;52.388;13.390;2023-12-28T03:03:33;6.65;70.57
57709;SHT35;42558;52.388;13.390;2023-12-28T03:06:03;6.85;69.66
57709;SHT35;42558;52.388;13.390;2023-12-28T03:08:32;7.02;68.46
57709;SHT35;42558;52.388;13.390;2023-12-28T03:11:01;7.25;67.27
57709;SHT35;42558;52.388;13.390;2023-12-28T03:13:31;7.34;66.91
57709;SHT35;42558;52.388;13.390;2023-12-28T03:16:01;7.46;66.47
57709;SHT35;42558;52.388;13.390;2023-12-28T03:18:30;7.62;65.62
57709;SHT35;42558;52.388;13.390;2023-12-28T03:21:00;7.71;65.00
57709;SHT35;42558;52.388;13.390;2023-12-28T03:23:29;7.72;65.44
57709;SHT35;42558;52.388;13.390;2023-12-28T03:26:00;7.72;65.23
57709;SHT35;42558;52.388;13.390;2023-12-28T03:28:30;7.85;64.33
57709;SHT35;42558;52.388;13.390;2023-12-28T03:31:01;7.89;64.66
57709;SHT35;42558;52.388;13.390;2023-12-28T03:33:32;7.89;64.74
57709;SHT35;42558;52.388;13.390;2023-12-28T03:36:01;7.90;64.57
57709;SHT35;42558;52.388;13.390;2023-12-28T03:38:31;8.12;63.29
57709;SHT35;42558;52.388;13.390;2023-12-28T03:41:00;8.25;62.75
57709;SHT35;42558;52.388;13.390;2023-12-28T03:43:29;8.23;63.44
57709;SHT35;42558;52.388;13.390;2023-12-28T03:45:58;8.11;65.08
57709;SHT35;42558;52.388;13.390;2023-12-28T03:48:28;8.03;65.86
57709;SHT35;42558;52.388;13.390;2023-12-28T03:50:55;8.05;65.54
57709;SHT35;42558;52.388;13.390;2023-12-28T03:53:22;8.05;65.97
57709;SHT35;42558;52.388;13.390;2023-12-28T03:55:51;8.02;66.08
57709;SHT35;42558;52.388;13.390;2023-12-28T03:58:20;7.95;67.04
57709;SHT35;42558;52.388;13.390;2023-12-28T04:00:49;7.87;67.72
57709;SHT35;42558;52.388;13.390;2023-12-28T04:03:19;7.95;67.10
57709;SHT35;42558;52.388;13.390;2023-12-28T04:05:48;7.90;67.82
57709;SHT35;42558;52.388;13.390;2023-12-28T04:08:18;7.83;67.93
57709;SHT35;42558;52.388;13.390;2023-12-28T04:10:47;7.76;68.18
57709;SHT35;42558;52.388;13.390;2023-12-28T04:13:15;7.79;67.42
57709;SHT35;42558;52.388;13.390;2023-12-28T04:15:44;7.85;67.05
57709;SHT35;42558;52.388;13.390;2023-12-28T04:18:12;7.87;67.09
57709;SHT35;42558;52.388;13.390;2023-12-28T04:20:44;7.84;67.50
57709;SHT35;42558;52.388;13.390;2023-12-28T04:23:12;7.78;67.50
57709;SHT35;42558;52.388;13.390;2023-12-28T04:25:40;7.76;67.94
57709;SHT35;42558;52.388;13.390;2023-12-28T04:28:09;7.83;67.07
57709;SHT35;42558;52.388;13.390;2023-12-28T04:30:37;7.93;66.14
57709;SHT35;42558;52.388;13.390;2023-12-28T04:33:05;8.05;65.77
57709;SHT35;42558;52.388;13.390;2023-12-28T04:35:34;8.06;65.74
57709;SHT35;42558;52.388;13.390;2023-12-28T04:38:02;8.01;66.22
57709;SHT35;42558;52.388;13.390;2023-12-28T04:40:31;7.96;66.37
57709;SHT35;42558;52.388;13.390;2023-12-28T04:42:59;7.94;66.69
57709;SHT35;42558;52.388;13.390;2023-12-28T04:45:28;8.04;66.40
57709;SHT35;42558;52.388;13.390;2023-12-28T04:47:56;8.01;66.70
57709;SHT35;42558;52.388;13.390;2023-12-28T04:50:24;7.97;66.84
57709;SHT35;42558;52.388;13.390;2023-12-28T04:52:53;8.02;66.14
57709;SHT35;42558;52.388;13.390;2023-12-28T04:55:21;8.22;65.27
57709;SHT35;42558;52.388;13.390;2023-12-28T04:57:50;8.23;65.28
57709;SHT35;42558;52.388;13.390;2023-12-28T05:00:18;8.18;65.94
57709;SHT35;42558;52.388;13.390;2023-12-28T05:02:46;8.21;65.52
57709;SHT35;42558;52.388;13.390;2023-12-28T05:05:15;8.27;65.40
57709;SHT35;42558;52.388;13.390;2023-12-28T05:07:43;8.24;65.93
57709;SHT35;42558;52.388;13.390;2023-12-28T05:10:12;8.21;65.68
57709;SHT35;42558;52.388;13.390;2023-12-28T05:12:40;8.25;66.04
57709;SHT35;42558;52.388;13.390;2023-12-28T05:15:12;8.24;65.74
57709;SHT35;42558;52.388;13.390;2023-12-28T05:17:40;8.26;65.74
57709;SHT35;42558;52.388;13.390;2023-12-28T05:20:09;8.33;66.01
57709;SHT35;42558;52.388;13.390;2023-12-28T05:22:37;8.30;65.94
57709;SHT35;42558;52.388;13.390;2023-12-28T05:25:05;8.30;66.07
57709;SHT35;42558;52.388;13.390;2023-12-28T05:27:34;8.35;66.02
57709;SHT35;42558;52.388;13.390;2023-12-28T05:30:02;8.32;66.12
57709;SHT35;42558;52.388;13.390;2023-12-28T05:32:30;8.30;66.45
57709;SHT35;42558;52.388;13.390;2023-12-28T05:34:59;8.31;66.49
57709;SHT35;42558;52.388;13.390;2023-12-28T05:37:27;8.21;67.41
57709;SHT35;42558;52.388;13.390;2023-12-28T05:39:56;8.12;67.64
57709;SHT35;42558;52.388;13.390;2023-12-28T05:42:24;8.13;67.75
57709;SHT35;42558;52.388;13.390;2023-12-28T05:44:52;8.08;68.20
57709;SHT35;42558;52.388;13.390;2023-12-28T05:47:21;8.01;68.54
57709;SHT35;42558;52.388;13.390;2023-12-28T05:49:49;7.99;68.84
57709;SHT35;42558;52.388;13.390;2023-12-28T05:52:18;8.03;68.75
57709;SHT35;42558;52.388;13.390;2023-12-28T05:54:47;8.04;68.86
57709;SHT35;42558;52.388;13.390;2023-12-28T05:57:17;8.06;68.83
57709;SHT35;42558;52.388;13.390;2023-12-28T05:59:46;7.99;69.61
57709;SHT35;42558;52.388;13.390;2023-12-28T06:02:16;7.98;69.85
57709;SHT35;42558;52.388;13.390;2023-12-28T06:04:45;8.08;69.47
57709;SHT35;42558;52.388;13.390;2023-12-28T06:07:14;8.04;69.80
57709;SHT35;42558;52.388;13.390;2023-12-28T06:09:43;8.01;69.94
57709;SHT35;42558;52.388;13.390;2023-12-28T06:12:14;8.01;70.18
57709;SHT35;42558;52.388;13.390;2023-12-28T06:14:44;8.02;70.09
57709;SHT35;42558;52.388;13.390;2023-12-28T06:17:13;8.14;69.83
57709;SHT35;42558;52.388;13.390;2023-12-28T06:19:44;8.08;70.13
57709;SHT35;42558;52.388;13.390;2023-12-28T06:22:13;7.99;70.48
57709;SHT35;42558;52.388;13.390;2023-12-28T06:24:42;7.90;70.98
57709;SHT35;42558;52.388;13.390;2023-12-28T06:27:12;7.92;71.01
57709;SHT35;42558;52.388;13.390;2023-12-28T06:29:41;7.94;70.91
57709;SHT35;42558;52.388;13.390;2023-12-28T06:32:10;7.99;70.73
57709;SHT35;42558;52.388;13.390;2023-12-28T06:34:39;8.04;70.53
57709;SHT35;42558;52.388;13.390;2023-12-28T06:37:09;8.01;70.73
57709;SHT35;42558;52.388;13.390;2023-12-28T06:39:39;7.98;70.94
57709;SHT35;42558;52.388;13.390;2023-12-28T06:42:08;7.87;71.50
57709;SHT35;42558;52.388;13.390;2023-12-28T06:44:37;7.84;71.68
57709;SHT35;42558;52.388;13.390;2023-12-28T06:47:07;7.82;71.75
57709;SHT35;42558;52.388;13.390;2023-12-28T06:49:36;7.71;72.18
57709;SHT35;42558;52.388;13.390;2023-12-28T06:52:06;7.68;72.54
57709;SHT35;42558;52.388;13.390;2023-12-28T06:54:35;7.74;72.36
57709;SHT35;42558;52.388;13.390;2023-12-28T06:57:05;7.78;72.21
57709;SHT35;42558;52.388;13.390;2023-12-28T06:59:34;7.73;72.60
57709;SHT35;42558;52.388;13.390;2023-12-28T07:02:03;7.84;72.35
57709;SHT35;42558;52.388;13.390;2023-12-28T07:04:33;7.79;72.64
57709;SHT35;42558;52.388;13.390;2023-12-28T07:07:02;7.83;72.67
57709;SHT35;42558;52.388;13.390;2023-12-28T07:09:32;7.82;72.71
57709;SHT35;42558;52.388;13.390;2023-12-28T07:12:02;7.79;72.88
57709;SHT35;42558;52.388;13.390;2023-12-28T07:14:31;7.75;73.03
57709;SHT35;42558;52.388;13.390;2023-12-28T07:17:01;7.64;73.36
57709;SHT35;42558;52.388;13.390;2023-12-28T07:19:30;7.53;74.27
57709;SHT35;42558;52.388;13.390;2023-12-28T07:21:59;7.57;74.41
57709;SHT35;42558;52.388;13.390;2023-12-28T07:24:28;7.55;74.57
57709;SHT35;42558;52.388;13.390;2023-12-28T07:26:55;7.47;75.06
57709;SHT35;42558;52.388;13.390;2023-12-28T07:29:22;7.52;75.18
57709;SHT35;42558;52.388;13.390;2023-12-28T07:31:54;7.56;75.05
57709;SHT35;42558;52.388;13.390;2023-12-28T07:34:22;7.49;75.45
57709;SHT35;42558;52.388;13.390;2023-12-28T07:36:50;7.42;75.97
57709;SHT35;42558;52.388;13.390;2023-12-28T07:39:19;7.40;76.10
57709;SHT35;42558;52.388;13.390;2023-12-28T07:41:47;7.33;76.60
57709;SHT35;42558;52.388;13.390;2023-12-28T07:44:15;7.36;76.99
57709;SHT35;42558;52.388;13.390;2023-12-28T07:46:44;7.47;76.70
57709;SHT35;42558;52.388;13.390;2023-12-28T07:49:12;7.57;76.45
57709;SHT35;42558;52.388;13.390;2023-12-28T07:51:41;7.57;76.37
57709;SHT35;42558;52.388;13.390;2023-12-28T07:54:09;7.52;76.64
57709;SHT35;42558;52.388;13.390;2023-12-28T07:56:38;7.47;76.92
57709;SHT35;42558;52.388;13.390;2023-12-28T07:59:06;7.50;77.06
57709;SHT35;42558;52.388;13.390;2023-12-28T08:01:37;7.59;77.00
57709;SHT35;42558;52.388;13.390;2023-12-28T08:04:06;7.61;76.83
57709;SHT35;42558;52.388;13.390;2023-12-28T08:06:34;7.72;76.61
57709;SHT35;42558;52.388;13.390;2023-12-28T08:09:03;7.82;76.25
57709;SHT35;42558;52.388;13.390;2023-12-28T08:11:31;7.90;75.79
57709;SHT35;42558;52.388;13.390;2023-12-28T08:14:00;7.86;75.86
57709;SHT35;42558;52.388;13.390;2023-12-28T08:16:28;7.82;76.04
57709;SHT35;42558;52.388;13.390;2023-12-28T08:18:56;7.81;76.32
57709;SHT35;42558;52.388;13.390;2023-12-28T08:21:25;7.73;76.36
57709;SHT35;42558;52.388;13.390;2023-12-28T08:23:53;7.65;76.92
57709;SHT35;42558;52.388;13.390;2023-12-28T08:26:22;7.68;76.98
57709;SHT35;42558;52.388;13.390;2023-12-28T08:28:50;7.69;76.88
57709;SHT35;42558;52.388;13.390;2023-12-28T08:31:18;7.74;76.66
57709;SHT35;42558;52.388;13.390;2023-12-28T08:33:47;7.74;76.58
57709;SHT35;42558;52.388;13.390;2023-12-28T08:36:15;7.73;76.53
57709;SHT35;42558;52.388;13.390;2023-12-28T08:38:44;7.75;76.29
57709;SHT35;42558;52.388;13.390;2023-12-28T08:41:19;7.80;76.06
57709;SHT35;42558;52.388;13.390;2023-12-28T08:43:53;7.83;75.89
57709;SHT35;42558;52.388;13.390;2023-12-28T08:46:23;7.80;75.86
57709;SHT35;42558;52.388;13.390;2023-12-28T08:48:55;7.86;75.59
57709;SHT35;42558;52.388;13.390;2023-12-28T08:51:24;7.89;75.31
57709;SHT35;42558;52.388;13.390;2023-12-28T08:53:53;8.07;74.42
57709;SHT35;42558;52.388;13.390;2023-12-28T08:56:23;8.09;74.39
57709;SHT35;42558;52.388;13.390;2023-12-28T08:58:52;8.04;74.67
57709;SHT35;42558;52.388;13.390;2023-12-28T09:01:23;8.03;74.80
57709;SHT35;42558;52.388;13.390;2023-12-28T09:03:56;8.02;74.93
57709;SHT35;42558;52.388;13.390;2023-12-28T09:06:27;8.05;74.77
57709;SHT35;42558;52.388;13.390;2023-12-28T09:08:56;8.10;74.69
57709;SHT35;42558;52.388;13.390;2023-12-28T09:11:27;8.13;74.66
57709;SHT35;42558;52.388;13.390;2023-12-28T09:13:57;8.14;74.65
57709;SHT35;42558;52.388;13.390;2023-12-28T09:16:27;8.14;74.79
57709;SHT35;42558;52.388;13.390;2023-12-28T09:18:57;8.13;74.78
57709;SHT35;42558;52.388;13.390;2023-12-28T09:21:26;8.21;74.36
57709;SHT35;42558;52.388;13.390;2023-12-28T09:23:56;8.24;74.47
57709;SHT35;42558;52.388;13.390;2023-12-28T09:26:25;8.24;74.55
57709;SHT35;42558;52.388;13.390;2023-12-28T09:28:55;8.29;74.47
57709;SHT35;42558;52.388;13.390;2023-12-28T09:31:24;8.31;74.45
57709;SHT35;42558;52.388;13.390;2023-12-28T09:33:53;8.33;74.46
57709;SHT35;42558;52.388;13.390;2023-12-28T09:36:22;8.35;74.62
57709;SHT35;42558;52.388;13.390;2023-12-28T09:38:52;8.32;74.77
57709;SHT35;42558;52.388;13.390;2023-12-28T09:41:22;8.31;75.02
57709;SHT35;42558;52.388;13.390;2023-12-28T09:46:47;8.33;75.01
57709;SHT35;42558;52.388;13.390;2023-12-28T09:49:14;8.34;74.97
57709;SHT35;42558;52.388;13.390;2023-12-28T09:51:45;8.28;75.27
57709;SHT35;42558;52.388;13.390;2023-12-28T09:54:14;8.24;75.55
57709;SHT35;42558;52.388;13.390;2023-12-28T09:56:42;8.26;75.63
57709;SHT35;42558;52.388;13.390;2023-12-28T09:59:12;8.24;75.71
57709;SHT35;42558;52.388;13.390;2023-12-28T10:01:45;8.27;75.68
57709;SHT35;42558;52.388;13.390;2023-12-28T10:04:16;8.32;75.64
57709;SHT35;42558;52.388;13.390;2023-12-28T10:06:46;8.36;75.64
57709;SHT35;42558;52.388;13.390;2023-12-28T10:09:15;8.48;75.24
57709;SHT35;42558;52.388;13.390;2023-12-28T10:11:45;8.56;74.99
57709;SHT35;42558;52.388;13.390;2023-12-28T10:14:14;8.54;75.18
57709;SHT35;42558;52.388;13.390;2023-12-28T10:16:44;8.81;74.44
57709;SHT35;42558;52.388;13.390;2023-12-28T10:19:14;8.98;73.88
57709;SHT35;42558;52.388;13.390;2023-12-28T10:21:42;9.06;73.43
57709;SHT35;42558;52.388;13.390;2023-12-28T10:24:10;8.84;74.14
57709;SHT35;42558;52.388;13.390;2023-12-28T10:26:39;8.90;74.34
57709;SHT35;42558;52.388;13.390;2023-12-28T10:29:07;9.11;73.48
57709;SHT35;42558;52.388;13.390;2023-12-28T10:31:36;9.31;73.21
57709;SHT35;42558;52.388;13.390;2023-12-28T10:34:04;9.91;71.54
57709;SHT35;42558;52.388;13.390;2023-12-28T10:36:32;11.30;67.68
57709;SHT35;42558;52.388;13.390;2023-12-28T10:39:04;12.73;62.09
57709;SHT35;42558;52.388;13.390;2023-12-28T10:41:40;12.60;62.09
57709;SHT35;42558;52.388;13.390;2023-12-28T10:44:13;11.97;63.26
57709;SHT35;42558;52.388;13.390;2023-12-28T10:46:50;11.70;65.33
57709;SHT35;42558;52.388;13.390;2023-12-28T10:49:26;12.52;62.54
57709;SHT35;42558;52.388;13.390;2023-12-28T10:51:53;12.18;63.32
57709;SHT35;42558;52.388;13.390;2023-12-28T10:57:25;12.65;62.16
57709;SHT35;42558;52.388;13.390;2023-12-28T11:00:18;12.85;61.18
57709;SHT35;42558;52.388;13.390;2023-12-28T11:02:54;13.93;59.80
57709;SHT35;42558;52.388;13.390;2023-12-28T11:05:32;13.58;62.15
57709;SHT35;42558;52.388;13.390;2023-12-28T11:08:03;13.14;63.21
57709;SHT35;42558;52.388;13.390;2023-12-28T11:10:36;14.60;59.87
57709;SHT35;42558;52.388;13.390;2023-12-28T11:13:08;15.28;57.32
57709;SHT35;42558;52.388;13.390;2023-12-28T11:15:39;15.90;55.58
57709;SHT35;42558;52.388;13.390;2023-12-28T11:18:10;14.24;58.80
57709;SHT35;42558;52.388;13.390;2023-12-28T11:20:39;11.60;65.66
57709;SHT35;42558;52.388;13.390;2023-12-28T11:23:12;10.79;68.24
57709;SHT35;42558;52.388;13.390;2023-12-28T11:25:42;10.27;69.93
57709;SHT35;42558;52.388;13.390;2023-12-28T11:28:12;10.14;70.71
57709;SHT35;42558;52.388;13.390;2023-12-28T11:30:41;10.08;71.31
57709;SHT35;42558;52.388;13.390;2023-12-28T11:33:13;9.99;71.73
57709;SHT35;42558;52.388;13.390;2023-12-28T11:35:40;9.76;72.58
57709;SHT35;42558;52.388;13.390;2023-12-28T11:38:10;9.85;72.71
57709;SHT35;42558;52.388;13.390;2023-12-28T11:40:46;9.77;72.62
57709;SHT35;42558;52.388;13.390;2023-12-28T11:43:19;9.82;72.55
57709;SHT35;42558;52.388;13.390;2023-12-28T11:45:50;9.89;72.55
57709;SHT35;42558;52.388;13.390;2023-12-28T11:48:25;9.77;72.66
57709;SHT35;42558;52.388;13.390;2023-12-28T11:51:00;9.68;73.17
57709;SHT35;42558;52.388;13.390;2023-12-28T11:53:28;9.60;73.03
57709;SHT35;42558;52.388;13.390;2023-12-28T11:55:59;9.62;72.96
57709;SHT35;42558;52.388;13.390;2023-12-28T11:58:30;9.64;73.16
57709;SHT35;42558;52.388;13.390;2023-12-28T12:01:02;9.66;73.31
57709;SHT35;42558;52.388;13.390;2023-12-28T12:03:32;9.73;73.02
57709;SHT35;42558;52.388;13.390;2023-12-28T12:06:01;9.77;73.16
57709;SHT35;42558;52.388;13.390;2023-12-28T12:08:30;9.78;73.15
57709;SHT35;42558;52.388;13.390;2023-12-28T12:11:01;9.80;73.11
57709;SHT35;42558;52.388;13.390;2023-12-28T12:13:34;9.86;72.91
57709;SHT35;42558;52.388;13.390;2023-12-28T12:16:04;9.91;72.55
57709;SHT35;42558;52.388;13.390;2023-12-28T12:18:35;9.91;72.51
57709;SHT35;42558;52.388;13.390;2023-12-28T12:21:05;9.93;72.30
57709;SHT35;42558;52.388;13.390;2023-12-28T12:23:35;9.95;72.29
57709;SHT35;42558;52.388;13.390;2023-12-28T12:26:05;9.95;72.46
57709;SHT35;42558;52.388;13.390;2023-12-28T12:28:35;9.99;72.19
57709;SHT35;42558;52.388;13.390;2023-12-28T12:31:03;9.98;72.28
57709;SHT35;42558;52.388;13.390;2023-12-28T12:33:32;10.00;72.03
57709;SHT35;42558;52.388;13.390;2023-12-28T12:36:00;10.02;72.11
57709;SHT35;42558;52.388;13.390;2023-12-28T12:38:28;10.04;71.99
57709;SHT35;42558;52.388;13.390;2023-12-28T12:40:57;10.08;71.93
57709;SHT35;42558;52.388;13.390;2023-12-28T12:43:25;10.16;71.45
57709;SHT35;42558;52.388;13.390;2023-12-28T12:45:54;10.20;71.41
57709;SHT35;42558;52.388;13.390;2023-12-28T12:48:22;10.11;71.90
57709;SHT35;42558;52.388;13.390;2023-12-28T12:50:50;10.10;71.82
57709;SHT35;42558;52.388;13.390;2023-12-28T12:53:17;10.10;71.69
57709;SHT35;42558;52.388;13.390;2023-12-28T12:55:44;10.14;71.37
57709;SHT35;42558;52.388;13.390;2023-12-28T12:58:13;10.16;71.06
57709;SHT35;42558;52.388;13.390;2023-12-28T13:00:45;10.18;71.13
57709;SHT35;42558;52.388;13.390;2023-12-28T13:03:13;10.14;71.31
57709;SHT35;42558;52.388;13.390;2023-12-28T13:05:41;10.12;71.40
57709;SHT35;42558;52.388;13.390;2023-12-28T13:08:09;10.14;71.55
57709;SHT35;42558;52.388;13.390;2023-12-28T13:10:38;10.16;71.49
57709;SHT35;42558;52.388;13.390;2023-12-28T13:13:06;10.16;71.36
57709;SHT35;42558;52.388;13.390;2023-12-28T13:15:35;10.12;71.64
57709;SHT35;42558;52.388;13.390;2023-12-28T13:18:03;10.09;71.75
57709;SHT35;42558;52.388;13.390;2023-12-28T13:20:31;10.09;71.70
57709;SHT35;42558;52.388;13.390;2023-12-28T13:23:00;10.03;72.03
57709;SHT35;42558;52.388;13.390;2023-12-28T13:25:31;10.01;72.04
57709;SHT35;42558;52.388;13.390;2023-12-28T13:28:00;9.99;71.98
57709;SHT35;42558;52.388;13.390;2023-12-28T13:30:28;10.00;71.93
57709;SHT35;42558;52.388;13.390;2023-12-28T13:32:57;9.98;71.95
57709;SHT35;42558;52.388;13.390;2023-12-28T13:35:25;9.94;72.16
57709;SHT35;42558;52.388;13.390;2023-12-28T13:37:53;9.91;72.12
57709;SHT35;42558;52.388;13.390;2023-12-28T13:40:22;9.94;71.72
57709;SHT35;42558;52.388;13.390;2023-12-28T13:42:50;9.91;71.92
57709;SHT35;42558;52.388;13.390;2023-12-28T13:45:19;9.91;71.90
57709;SHT35;42558;52.388;13.390;2023-12-28T13:47:47;9.96;71.82
57709;SHT35;42558;52.388;13.390;2023-12-28T13:50:15;9.95;72.01
57709;SHT35;42558;52.388;13.390;2023-12-28T13:52:44;9.96;72.08
57709;SHT35;42558;52.388;13.390;2023-12-28T13:55:12;10.00;71.74
57709;SHT35;42558;52.388;13.390;2023-12-28T13:57:41;10.06;71.61
57709;SHT35;42558;52.388;13.390;2023-12-28T14:00:09;10.02;71.85
57709;SHT35;42558;52.388;13.390;2023-12-28T14:02:38;10.02;72.03
57709;SHT35;42558;52.388;13.390;2023-12-28T14:05:06;10.02;71.89
57709;SHT35;42558;52.388;13.390;2023-12-28T14:07:34;9.99;72.00
57709;SHT35;42558;52.388;13.390;2023-12-28T14:10:03;9.94;72.22
57709;SHT35;42558;52.388;13.390;2023-12-28T14:12:31;9.95;72.11
57709;SHT35;42558;52.388;13.390;2023-12-28T14:15:00;9.95;72.12
57709;SHT35;42558;52.388;13.390;2023-12-28T14:17:28;9.93;72.31
57709;SHT35;42558;52.388;13.390;2023-12-28T14:19:57;9.93;72.18
57709;SHT35;42558;52.388;13.390;2023-12-28T14:22:25;9.91;72.27
57709;SHT35;42558;52.388;13.390;2023-12-28T14:24:54;9.92;72.18
57709;SHT35;42558;52.388;13.390;2023-12-28T14:27:22;9.96;72.08
57709;SHT35;42558;52.388;13.390;2023-12-28T14:29:51;9.96;72.03
57709;SHT35;42558;52.388;13.390;2023-12-28T14:32:19;9.89;72.25
57709;SHT35;42558;52.388;13.390;2023-12-28T14:34:47;9.81;72.48
57709;SHT35;42558;52.388;13.390;2023-12-28T14:37:15;9.73;72.68
57709;SHT35;42558;52.388;13.390;2023-12-28T14:39:44;9.66;72.93
57709;SHT35;42558;52.388;13.390;2023-12-28T14:42:12;9.53;73.34
57709;SHT35;42558;52.388;13.390;2023-12-28T14:44:41;9.43;73.65
57709;SHT35;42558;52.388;13.390;2023-12-28T14:47:09;9.46;73.46
57709;SHT35;42558;52.388;13.390;2023-12-28T14:49:38;9.46;73.43
57709;SHT35;42558;52.388;13.390;2023-12-28T14:52:06;9.38;73.69
57709;SHT35;42558;52.388;13.390;2023-12-28T14:54:34;9.35;73.85
57709;SHT35;42558;52.388;13.390;2023-12-28T14:57:03;9.36;73.72
57709;SHT35;42558;52.388;13.390;2023-12-28T14:59:31;9.40;73.55
57709;SHT35;42558;52.388;13.390;2023-12-28T15:02:00;9.44;73.41
57709;SHT35;42558;52.388;13.390;2023-12-28T15:04:29;9.36;73.70
57709;SHT35;42558;52.388;13.390;2023-12-28T15:06:59;9.30;74.02
57709;SHT35;42558;52.388;13.390;2023-12-28T15:09:29;9.32;73.95
57709;SHT35;42558;52.388;13.390;2023-12-28T15:11:59;9.27;74.06
57709;SHT35;42558;52.388;13.390;2023-12-28T15:14:29;9.21;74.27
57709;SHT35;42558;52.388;13.390;2023-12-28T15:16:59;9.26;74.07
57709;SHT35;42558;52.388;13.390;2023-12-28T15:19:29;9.23;74.14
57709;SHT35;42558;52.388;13.390;2023-12-28T15:21:59;9.17;74.25
57709;SHT35;42558;52.388;13.390;2023-12-28T15:24:30;9.10;74.53
57709;SHT35;42558;52.388;13.390;2023-12-28T15:27:00;9.06;74.71
57709;SHT35;42558;52.388;13.390;2023-12-28T15:29:29;9.11;74.46
57709;SHT35;42558;52.388;13.390;2023-12-28T15:31:59;8.99;74.81
57709;SHT35;42558;52.388;13.390;2023-12-28T15:34:28;8.96;75.00
57709;SHT35;42558;52.388;13.390;2023-12-28T15:36:58;9.00;74.85
57709;SHT35;42558;52.388;13.390;2023-12-28T15:39:27;9.02;74.76
57709;SHT35;42558;52.388;13.390;2023-12-28T15:41:57;9.01;74.90
57709;SHT35;42558;52.388;13.390;2023-12-28T15:44:26;9.06;74.69
57709;SHT35;42558;52.388;13.390;2023-12-28T15:46:55;9.05;74.76
57709;SHT35;42558;52.388;13.390;2023-12-28T15:49:24;9.04;74.82
57709;SHT35;42558;52.388;13.390;2023-12-28T15:51:54;9.00;74.88
57709;SHT35;42558;52.388;13.390;2023-12-28T15:54:24;8.94;75.12